Buffalo, New York
Current Conditions -  °F | °C
As of 11:54 PM on Friday 21 Nov 2014 (Local Time) from KBUF Reporting Station
Overcast Overcast  
Wind Chill:   Ceiling: 2800
Heat Index: 23°   Visibility: 10mi
Dew Point: 12°   Wind: 21mph
Humidity: 63%   Direction: 210°SSW
Pressure: 30.37"   Gusts: NA
Location:  42.89°N, 78.88°W
Report Text: KBUF 220454Z 21018KT 10SM OVC028 M05/M11 A3037 RMK AO2 SNE16 SLP296 P0000 T10501111 410221083
Loading
Personal Weather Stations






























Interactive Weather Map New forecast layout! Learn more

10-Day Weather Forecast

Advertisements
Track Severe Weather on mobile